TAF Text Data
IDs:
Format:
Raw Decoded Include METAR

Data at: 0615 UTC 24 Jan 2019

KLUF 240558Z AUTO 31004KT 10SM CLR 06/M01 A3015 RMK AO2 SLP211 60000 T00631011 10155 20059 58003 $

TAF KLUF 240402Z 2404/2510 20009KT 9999 SKC QNH3012INS
  BECMG 2405/2406 VRB06KT 9999 SKC QNH3016INS TX18/2422Z TN03/2412Z LAST NO AMDS AFT 2406 NEXT 2412